sensor_id;sensor_type;location;lat;lon;timestamp;pressure;altitude;pressure_sealevel;temperature;humidity
68994;BME280;56054;50.968;5.816;2023-02-26T00:02:15;100908.47;;;0.96;94.14
68994;BME280;56054;50.968;5.816;2023-02-26T00:05:22;100904.91;;;1.03;94.67
68994;BME280;56054;50.968;5.816;2023-02-26T00:08:29;100898.63;;;0.83;95.18
68994;BME280;56054;50.968;5.816;2023-02-26T00:11:36;100903.56;;;0.82;94.95
68994;BME280;56054;50.968;5.816;2023-02-26T00:14:43;100899.09;;;0.88;95.50
68994;BME280;56054;50.968;5.816;2023-02-26T00:17:58;100907.69;;;0.89;95.52
68994;BME280;56054;50.968;5.816;2023-02-26T00:21:35;100909.34;;;0.88;95.25
68994;BME280;56054;50.968;5.816;2023-02-26T00:24:49;100918.41;;;0.69;96.26
68994;BME280;56054;50.968;5.816;2023-02-26T00:27:56;100925.63;;;0.73;96.22
68994;BME280;56054;50.968;5.816;2023-02-26T00:31:04;100940.75;;;0.62;97.25
68994;BME280;56054;50.968;5.816;2023-02-26T00:34:14;100935.72;;;0.71;97.20
68994;BME280;56054;50.968;5.816;2023-02-26T00:37:48;100944.78;;;0.76;97.90
68994;BME280;56054;50.968;5.816;2023-02-26T00:40:59;100961.41;;;0.89;97.26
68994;BME280;56054;50.968;5.816;2023-02-26T00:44:07;100949.41;;;0.72;97.51
68994;BME280;56054;50.968;5.816;2023-02-26T00:50:58;100958.44;;;0.93;98.46
68994;BME280;56054;50.968;5.816;2023-02-26T00:54:22;100954.91;;;0.83;98.79
68994;BME280;56054;50.968;5.816;2023-02-26T00:57:30;100957.19;;;0.89;98.43
68994;BME280;56054;50.968;5.816;2023-02-26T01:00:37;100963.56;;;0.77;98.19
68994;BME280;56054;50.968;5.816;2023-02-26T01:04:10;100964.66;;;0.79;99.13
68994;BME280;56054;50.968;5.816;2023-02-26T01:07:23;100958.34;;;0.84;99.00
68994;BME280;56054;50.968;5.816;2023-02-26T01:10:55;100951.53;;;0.76;98.79
68994;BME280;56054;50.968;5.816;2023-02-26T01:22:54;100964.34;;;0.60;99.10
68994;BME280;56054;50.968;5.816;2023-02-26T01:26:23;100975.75;;;0.55;99.52
68994;BME280;56054;50.968;5.816;2023-02-26T01:29:41;100968.34;;;0.49;100.00
68994;BME280;56054;50.968;5.816;2023-02-26T01:33:45;100966.78;;;0.42;100.00
68994;BME280;56054;50.968;5.816;2023-02-26T01:37:20;100962.38;;;0.57;100.00
68994;BME280;56054;50.968;5.816;2023-02-26T01:44:59;100953.84;;;0.81;100.00
68994;BME280;56054;50.968;5.816;2023-02-26T01:48:18;100962.28;;;0.49;100.00
68994;BME280;56054;50.968;5.816;2023-02-26T01:54:44;100973.19;;;0.55;100.00
68994;BME280;56054;50.968;5.816;2023-02-26T01:57:53;100974.72;;;0.37;100.00
68994;BME280;56054;50.968;5.816;2023-02-26T02:01:05;100976.25;;;0.28;100.00
68994;BME280;56054;50.968;5.816;2023-02-26T02:04:14;100984.44;;;0.32;100.00
68994;BME280;56054;50.968;5.816;2023-02-26T02:07:22;100986.97;;;0.48;100.00
68994;BME280;56054;50.968;5.816;2023-02-26T02:10:29;100980.44;;;0.59;100.00
68994;BME280;56054;50.968;5.816;2023-02-26T02:14:00;100978.25;;;0.30;100.00
68994;BME280;56054;50.968;5.816;2023-02-26T02:31:56;101004.69;;;0.31;100.00
68994;BME280;56054;50.968;5.816;2023-02-26T02:35:23;101010.47;;;0.53;100.00
68994;BME280;56054;50.968;5.816;2023-02-26T02:38:46;101011.47;;;0.62;100.00
68994;BME280;56054;50.968;5.816;2023-02-26T02:42:03;101012.19;;;0.61;100.00
68994;BME280;56054;50.968;5.816;2023-02-26T02:45:25;101017.91;;;0.42;100.00
68994;BME280;56054;50.968;5.816;2023-02-26T02:48:46;101015.75;;;0.54;100.00
68994;BME280;56054;50.968;5.816;2023-02-26T02:52:37;101014.38;;;0.49;100.00
68994;BME280;56054;50.968;5.816;2023-02-26T02:55:49;101011.78;;;0.33;100.00
68994;BME280;56054;50.968;5.816;2023-02-26T02:59:39;101014.03;;;0.30;100.00
68994;BME280;56054;50.968;5.816;2023-02-26T03:06:14;101022.34;;;0.20;100.00
68994;BME280;56054;50.968;5.816;2023-02-26T03:09:23;101030.34;;;0.24;100.00
68994;BME280;56054;50.968;5.816;2023-02-26T03:12:31;101026.56;;;0.20;100.00
68994;BME280;56054;50.968;5.816;2023-02-26T03:15:52;101035.38;;;0.15;100.00
68994;BME280;56054;50.968;5.816;2023-02-26T03:25:57;101047.53;;;0.02;100.00
68994;BME280;56054;50.968;5.816;2023-02-26T03:29:18;101046.47;;;-0.01;100.00
68994;BME280;56054;50.968;5.816;2023-02-26T03:36:19;101058.25;;;-0.10;100.00
68994;BME280;56054;50.968;5.816;2023-02-26T03:39:42;101059.81;;;-0.03;100.00
68994;BME280;56054;50.968;5.816;2023-02-26T03:43:16;101066.63;;;-0.11;100.00
68994;BME280;56054;50.968;5.816;2023-02-26T03:47:05;101076.84;;;-0.11;100.00
68994;BME280;56054;50.968;5.816;2023-02-26T03:50:18;101085.34;;;-0.03;100.00
68994;BME280;56054;50.968;5.816;2023-02-26T03:54:01;101077.09;;;-0.16;100.00
68994;BME280;56054;50.968;5.816;2023-02-26T03:57:13;101082.47;;;-0.06;100.00
68994;BME280;56054;50.968;5.816;2023-02-26T04:00:52;101087.88;;;-0.19;100.00
68994;BME280;56054;50.968;5.816;2023-02-26T04:04:30;101080.16;;;-0.12;100.00
68994;BME280;56054;50.968;5.816;2023-02-26T04:07:49;101085.88;;;-0.22;100.00
68994;BME280;56054;50.968;5.816;2023-02-26T04:11:14;101088.66;;;-0.27;100.00
68994;BME280;56054;50.968;5.816;2023-02-26T04:14:22;101096.72;;;-0.31;100.00
68994;BME280;56054;50.968;5.816;2023-02-26T04:17:30;101105.66;;;-0.35;100.00
68994;BME280;56054;50.968;5.816;2023-02-26T04:20:37;101104.53;;;-0.30;100.00
68994;BME280;56054;50.968;5.816;2023-02-26T04:23:50;101110.56;;;-0.29;100.00
68994;BME280;56054;50.968;5.816;2023-02-26T04:26:58;101111.56;;;-0.43;100.00
68994;BME280;56054;50.968;5.816;2023-02-26T04:30:09;101116.34;;;-0.46;100.00
68994;BME280;56054;50.968;5.816;2023-02-26T04:33:17;101116.13;;;-0.40;100.00
68994;BME280;56054;50.968;5.816;2023-02-26T04:36:24;101122.72;;;-0.50;100.00
68994;BME280;56054;50.968;5.816;2023-02-26T04:39:34;101126.38;;;-0.48;100.00
68994;BME280;56054;50.968;5.816;2023-02-26T04:42:44;101127.69;;;-0.51;100.00
68994;BME280;56054;50.968;5.816;2023-02-26T04:46:00;101132.25;;;-0.56;100.00
68994;BME280;56054;50.968;5.816;2023-02-26T04:49:21;101137.53;;;-0.54;100.00
68994;BME280;56054;50.968;5.816;2023-02-26T04:52:29;101130.09;;;-0.60;100.00
68994;BME280;56054;50.968;5.816;2023-02-26T04:55:36;101134.97;;;-0.54;100.00
68994;BME280;56054;50.968;5.816;2023-02-26T04:58:44;101137.75;;;-0.60;100.00
68994;BME280;56054;50.968;5.816;2023-02-26T05:02:00;101144.88;;;-0.65;100.00
68994;BME280;56054;50.968;5.816;2023-02-26T05:05:12;101148.75;;;-0.68;100.00
68994;BME280;56054;50.968;5.816;2023-02-26T05:08:19;101139.63;;;-0.73;100.00
68994;BME280;56054;50.968;5.816;2023-02-26T05:11:26;101140.16;;;-0.69;100.00
68994;BME280;56054;50.968;5.816;2023-02-26T05:14:33;101152.75;;;-0.70;100.00
68994;BME280;56054;50.968;5.816;2023-02-26T05:17:40;101158.56;;;-0.71;100.00
68994;BME280;56054;50.968;5.816;2023-02-26T05:20:53;101162.22;;;-0.69;100.00
68994;BME280;56054;50.968;5.816;2023-02-26T05:24:00;101166.97;;;-0.72;100.00
68994;BME280;56054;50.968;5.816;2023-02-26T05:27:07;101161.16;;;-0.78;100.00
68994;BME280;56054;50.968;5.816;2023-02-26T05:30:18;101162.09;;;-0.78;100.00
68994;BME280;56054;50.968;5.816;2023-02-26T05:33:31;101176.84;;;-0.75;100.00
68994;BME280;56054;50.968;5.816;2023-02-26T05:36:38;101182.69;;;-0.83;100.00
68994;BME280;56054;50.968;5.816;2023-02-26T05:39:50;101183.66;;;-0.90;100.00
68994;BME280;56054;50.968;5.816;2023-02-26T05:42:58;101189.81;;;-0.88;100.00
68994;BME280;56054;50.968;5.816;2023-02-26T05:46:09;101190.38;;;-0.91;100.00
68994;BME280;56054;50.968;5.816;2023-02-26T05:49:16;101194.56;;;-0.91;100.00
68994;BME280;56054;50.968;5.816;2023-02-26T05:52:23;101204.41;;;-0.87;100.00
68994;BME280;56054;50.968;5.816;2023-02-26T05:55:30;101208.97;;;-0.92;100.00
68994;BME280;56054;50.968;5.816;2023-02-26T05:58:37;101212.25;;;-0.93;100.00
68994;BME280;56054;50.968;5.816;2023-02-26T06:01:44;101214.06;;;-0.92;100.00
68994;BME280;56054;50.968;5.816;2023-02-26T06:04:51;101223.53;;;-0.91;100.00
68994;BME280;56054;50.968;5.816;2023-02-26T06:07:58;101221.38;;;-0.95;100.00
68994;BME280;56054;50.968;5.816;2023-02-26T06:11:09;101229.03;;;-0.95;100.00
68994;BME280;56054;50.968;5.816;2023-02-26T06:14:16;101230.63;;;-0.88;100.00
68994;BME280;56054;50.968;5.816;2023-02-26T06:17:23;101234.88;;;-1.03;100.00
68994;BME280;56054;50.968;5.816;2023-02-26T06:20:30;101241.97;;;-1.00;100.00
68994;BME280;56054;50.968;5.816;2023-02-26T06:23:40;101250.34;;;-0.94;100.00
68994;BME280;56054;50.968;5.816;2023-02-26T06:26:49;101250.16;;;-1.03;100.00
68994;BME280;56054;50.968;5.816;2023-02-26T06:29:59;101267.31;;;-1.02;100.00
68994;BME280;56054;50.968;5.816;2023-02-26T06:33:06;101274.56;;;-0.98;100.00
68994;BME280;56054;50.968;5.816;2023-02-26T06:36:14;101271.31;;;-0.97;100.00
68994;BME280;56054;50.968;5.816;2023-02-26T06:39:21;101272.41;;;-1.02;100.00
68994;BME280;56054;50.968;5.816;2023-02-26T06:42:29;101281.13;;;-0.93;100.00
68994;BME280;56054;50.968;5.816;2023-02-26T06:45:36;101284.06;;;-0.97;100.00
68994;BME280;56054;50.968;5.816;2023-02-26T06:48:43;101292.59;;;-0.89;100.00
68994;BME280;56054;50.968;5.816;2023-02-26T06:51:59;101289.50;;;-0.94;100.00
68994;BME280;56054;50.968;5.816;2023-02-26T06:55:07;101293.72;;;-0.94;100.00
68994;BME280;56054;50.968;5.816;2023-02-26T06:58:14;101305.38;;;-0.96;100.00
68994;BME280;56054;50.968;5.816;2023-02-26T07:01:47;101308.44;;;-0.84;100.00
68994;BME280;56054;50.968;5.816;2023-02-26T07:04:54;101305.38;;;-0.89;100.00
68994;BME280;56054;50.968;5.816;2023-02-26T07:08:06;101309.19;;;-0.93;100.00
68994;BME280;56054;50.968;5.816;2023-02-26T07:11:14;101316.66;;;-0.80;100.00
68994;BME280;56054;50.968;5.816;2023-02-26T07:14:21;101325.22;;;-0.79;100.00
68994;BME280;56054;50.968;5.816;2023-02-26T07:17:28;101328.50;;;-0.80;100.00
68994;BME280;56054;50.968;5.816;2023-02-26T07:20:35;101329.94;;;-0.75;100.00
68994;BME280;56054;50.968;5.816;2023-02-26T07:23:42;101329.22;;;-0.74;100.00
68994;BME280;56054;50.968;5.816;2023-02-26T07:26:49;101331.19;;;-0.72;100.00
68994;BME280;56054;50.968;5.816;2023-02-26T07:29:56;101334.66;;;-0.71;100.00
68994;BME280;56054;50.968;5.816;2023-02-26T07:33:03;101344.50;;;-0.67;100.00
68994;BME280;56054;50.968;5.816;2023-02-26T07:36:14;101349.78;;;-0.58;100.00
68994;BME280;56054;50.968;5.816;2023-02-26T07:39:21;101353.81;;;-0.60;100.00
68994;BME280;56054;50.968;5.816;2023-02-26T07:42:28;101358.00;;;-0.61;100.00
68994;BME280;56054;50.968;5.816;2023-02-26T07:45:35;101372.75;;;-0.58;100.00
68994;BME280;56054;50.968;5.816;2023-02-26T07:48:42;101382.41;;;-0.49;100.00
68994;BME280;56054;50.968;5.816;2023-02-26T07:51:54;101391.31;;;-0.45;100.00
68994;BME280;56054;50.968;5.816;2023-02-26T07:55:02;101389.13;;;-0.42;100.00
68994;BME280;56054;50.968;5.816;2023-02-26T07:58:35;101389.50;;;-0.39;99.73
68994;BME280;56054;50.968;5.816;2023-02-26T08:01:42;101395.66;;;-0.30;100.00
68994;BME280;56054;50.968;5.816;2023-02-26T08:04:49;101411.16;;;-0.21;100.00
68994;BME280;56054;50.968;5.816;2023-02-26T08:07:56;101416.25;;;-0.21;99.16
68994;BME280;56054;50.968;5.816;2023-02-26T08:11:03;101407.47;;;-0.16;98.86
68994;BME280;56054;50.968;5.816;2023-02-26T08:14:14;101415.34;;;-0.14;98.75
68994;BME280;56054;50.968;5.816;2023-02-26T08:17:21;101417.69;;;-0.09;98.41
68994;BME280;56054;50.968;5.816;2023-02-26T08:21:04;101419.88;;;-0.05;97.21
68994;BME280;56054;50.968;5.816;2023-02-26T08:24:24;101412.19;;;0.03;97.38
68994;BME280;56054;50.968;5.816;2023-02-26T08:27:35;101416.88;;;0.07;96.58
68994;BME280;56054;50.968;5.816;2023-02-26T08:31:08;101436.91;;;0.25;96.58
68994;BME280;56054;50.968;5.816;2023-02-26T08:34:15;101438.72;;;0.26;96.00
68994;BME280;56054;50.968;5.816;2023-02-26T08:37:22;101444.22;;;0.22;95.13
68994;BME280;56054;50.968;5.816;2023-02-26T08:40:42;101440.00;;;0.30;94.63
68994;BME280;56054;50.968;5.816;2023-02-26T08:44:15;101453.66;;;0.37;93.85
68994;BME280;56054;50.968;5.816;2023-02-26T08:47:43;101457.28;;;0.39;93.32
68994;BME280;56054;50.968;5.816;2023-02-26T08:50:53;101454.66;;;0.54;93.43
68994;BME280;56054;50.968;5.816;2023-02-26T08:54:05;101461.56;;;0.62;92.49
68994;BME280;56054;50.968;5.816;2023-02-26T08:57:14;101454.78;;;0.62;92.36
68994;BME280;56054;50.968;5.816;2023-02-26T09:00:21;101471.16;;;0.79;92.38
68994;BME280;56054;50.968;5.816;2023-02-26T09:03:34;101480.22;;;0.91;91.20
68994;BME280;56054;50.968;5.816;2023-02-26T09:06:44;101477.94;;;1.01;91.04
68994;BME280;56054;50.968;5.816;2023-02-26T09:09:55;101491.16;;;0.90;89.33
68994;BME280;56054;50.968;5.816;2023-02-26T09:13:02;101487.81;;;1.05;89.23
68994;BME280;56054;50.968;5.816;2023-02-26T09:16:09;101503.34;;;1.00;88.34
68994;BME280;56054;50.968;5.816;2023-02-26T09:19:24;101503.63;;;1.17;87.42
68994;BME280;56054;50.968;5.816;2023-02-26T09:22:35;101508.13;;;1.27;86.78
68994;BME280;56054;50.968;5.816;2023-02-26T09:25:42;101502.06;;;1.26;86.75
68994;BME280;56054;50.968;5.816;2023-02-26T09:28:49;101509.72;;;1.34;86.10
68994;BME280;56054;50.968;5.816;2023-02-26T09:31:56;101505.75;;;1.52;86.66
68994;BME280;56054;50.968;5.816;2023-02-26T09:35:04;101517.75;;;1.60;84.66
68994;BME280;56054;50.968;5.816;2023-02-26T09:38:11;101512.94;;;1.63;84.54
68994;BME280;56054;50.968;5.816;2023-02-26T09:41:27;101529.22;;;1.63;83.94
68994;BME280;56054;50.968;5.816;2023-02-26T09:44:36;101528.50;;;1.64;80.79
68994;BME280;56054;50.968;5.816;2023-02-26T09:48:12;101540.47;;;1.57;80.78
68994;BME280;56054;50.968;5.816;2023-02-26T09:51:30;101533.88;;;1.98;80.15
68994;BME280;56054;50.968;5.816;2023-02-26T09:54:44;101537.63;;;2.08;80.68
68994;BME280;56054;50.968;5.816;2023-02-26T09:57:57;101544.81;;;2.04;79.62
68994;BME280;56054;50.968;5.816;2023-02-26T10:01:26;101546.72;;;2.13;79.55
68994;BME280;56054;50.968;5.816;2023-02-26T10:07:59;101548.31;;;2.36;77.49
68994;BME280;56054;50.968;5.816;2023-02-26T10:15:00;101560.88;;;2.26;75.76
68994;BME280;56054;50.968;5.816;2023-02-26T10:18:30;101570.91;;;2.63;75.67
68994;BME280;56054;50.968;5.816;2023-02-26T10:21:39;101569.47;;;2.26;72.45
68994;BME280;56054;50.968;5.816;2023-02-26T10:25:00;101583.88;;;2.33;72.72
68994;BME280;56054;50.968;5.816;2023-02-26T10:35:07;101571.91;;;2.56;71.45
68994;BME280;56054;50.968;5.816;2023-02-26T10:38:19;101578.19;;;2.83;69.86
68994;BME280;56054;50.968;5.816;2023-02-26T10:41:29;101578.78;;;2.49;68.75
68994;BME280;56054;50.968;5.816;2023-02-26T10:44:46;101588.78;;;2.86;69.02
68994;BME280;56054;50.968;5.816;2023-02-26T10:51:22;101578.16;;;2.99;68.48
68994;BME280;56054;50.968;5.816;2023-02-26T10:54:34;101576.63;;;3.17;69.15
68994;BME280;56054;50.968;5.816;2023-02-26T10:57:47;101581.13;;;3.11;68.63
68994;BME280;56054;50.968;5.816;2023-02-26T11:00:59;101588.16;;;3.20;67.28
68994;BME280;56054;50.968;5.816;2023-02-26T11:04:18;101596.34;;;3.09;65.82
68994;BME280;56054;50.968;5.816;2023-02-26T11:07:31;101585.22;;;2.93;66.80
68994;BME280;56054;50.968;5.816;2023-02-26T11:11:05;101584.50;;;3.18;65.49
68994;BME280;56054;50.968;5.816;2023-02-26T11:14:14;101594.88;;;3.11;63.85
68994;BME280;56054;50.968;5.816;2023-02-26T11:17:36;101596.47;;;3.27;64.26
68994;BME280;56054;50.968;5.816;2023-02-26T11:20:46;101593.03;;;3.51;64.05
68994;BME280;56054;50.968;5.816;2023-02-26T11:24:33;101598.25;;;3.43;62.75
68994;BME280;56054;50.968;5.816;2023-02-26T11:28:06;101590.78;;;3.29;62.15
68994;BME280;56054;50.968;5.816;2023-02-26T11:31:25;101593.72;;;3.41;62.55
68994;BME280;56054;50.968;5.816;2023-02-26T11:34:32;101591.78;;;3.72;61.48
68994;BME280;56054;50.968;5.816;2023-02-26T11:37:41;101591.41;;;3.35;59.02
68994;BME280;56054;50.968;5.816;2023-02-26T11:41:15;101592.81;;;3.40;60.31
68994;BME280;56054;50.968;5.816;2023-02-26T11:44:42;101584.00;;;3.63;60.33
68994;BME280;56054;50.968;5.816;2023-02-26T11:47:58;101590.78;;;3.54;59.19
68994;BME280;56054;50.968;5.816;2023-02-26T11:51:09;101578.06;;;3.80;59.82
68994;BME280;56054;50.968;5.816;2023-02-26T11:54:27;101593.81;;;3.58;56.62
68994;BME280;56054;50.968;5.816;2023-02-26T11:57:41;101582.72;;;3.75;57.60
68994;BME280;56054;50.968;5.816;2023-02-26T12:00:51;101575.56;;;3.97;58.02
68994;BME280;56054;50.968;5.816;2023-02-26T12:04:04;101575.66;;;4.15;55.92
68994;BME280;56054;50.968;5.816;2023-02-26T12:07:13;101574.72;;;4.14;56.82
68994;BME280;56054;50.968;5.816;2023-02-26T12:10:25;101579.19;;;3.99;55.78
68994;BME280;56054;50.968;5.816;2023-02-26T12:14:21;101585.53;;;3.94;57.65
68994;BME280;56054;50.968;5.816;2023-02-26T12:28:09;101583.22;;;3.55;59.82
68994;BME280;56054;50.968;5.816;2023-02-26T12:31:32;101581.03;;;3.42;60.52
68994;BME280;56054;50.968;5.816;2023-02-26T12:35:01;101571.50;;;3.66;59.67
68994;BME280;56054;50.968;5.816;2023-02-26T12:38:56;101582.88;;;4.10;59.42
68994;BME280;56054;50.968;5.816;2023-02-26T12:42:05;101572.25;;;4.07;57.20
68994;BME280;56054;50.968;5.816;2023-02-26T12:45:53;101572.53;;;3.93;58.02
68994;BME280;56054;50.968;5.816;2023-02-26T13:03:09;101572.34;;;4.24;55.84
68994;BME280;56054;50.968;5.816;2023-02-26T13:06:31;101578.13;;;4.39;55.42
68994;BME280;56054;50.968;5.816;2023-02-26T13:10:08;101578.34;;;4.16;51.33
68994;BME280;56054;50.968;5.816;2023-02-26T13:13:45;101580.56;;;4.46;52.57
68994;BME280;56054;50.968;5.816;2023-02-26T13:17:11;101571.00;;;4.37;51.48
68994;BME280;56054;50.968;5.816;2023-02-26T13:20:25;101575.84;;;4.51;52.06
68994;BME280;56054;50.968;5.816;2023-02-26T13:27:10;101579.34;;;4.43;52.82
68994;BME280;56054;50.968;5.816;2023-02-26T13:30:33;101579.63;;;4.46;53.40
68994;BME280;56054;50.968;5.816;2023-02-26T13:34:10;101585.13;;;4.49;51.24
68994;BME280;56054;50.968;5.816;2023-02-26T13:37:38;101582.19;;;4.28;51.58
68994;BME280;56054;50.968;5.816;2023-02-26T13:44:21;101575.56;;;4.65;51.57
68994;BME280;56054;50.968;5.816;2023-02-26T13:48:10;101566.97;;;4.82;52.73
68994;BME280;56054;50.968;5.816;2023-02-26T13:51:44;101577.63;;;4.17;51.88
68994;BME280;56054;50.968;5.816;2023-02-26T13:55:03;101573.81;;;4.05;51.72
68994;BME280;56054;50.968;5.816;2023-02-26T13:58:29;101565.66;;;4.26;51.47
68994;BME280;56054;50.968;5.816;2023-02-26T14:01:54;101566.25;;;4.24;50.98
68994;BME280;56054;50.968;5.816;2023-02-26T14:05:51;101569.91;;;4.17;51.04
68994;BME280;56054;50.968;5.816;2023-02-26T14:09:03;101563.88;;;4.25;50.59
68994;BME280;56054;50.968;5.816;2023-02-26T14:12:45;101567.88;;;4.06;48.70
68994;BME280;56054;50.968;5.816;2023-02-26T14:25:50;101567.63;;;4.29;49.84
68994;BME280;56054;50.968;5.816;2023-02-26T14:29:43;101572.69;;;4.45;50.66
68994;BME280;56054;50.968;5.816;2023-02-26T14:33:08;101568.72;;;4.31;50.78
68994;BME280;56054;50.968;5.816;2023-02-26T14:40:25;101571.88;;;4.28;52.48
68994;BME280;56054;50.968;5.816;2023-02-26T14:43:42;101587.44;;;4.13;53.10
68994;BME280;56054;50.968;5.816;2023-02-26T14:46:56;101583.63;;;4.09;52.67
68994;BME280;56054;50.968;5.816;2023-02-26T14:50:05;101590.03;;;4.21;52.51
68994;BME280;56054;50.968;5.816;2023-02-26T15:12:27;101574.09;;;4.08;51.20
68994;BME280;56054;50.968;5.816;2023-02-26T15:20:16;101585.25;;;4.00;50.62
68994;BME280;56054;50.968;5.816;2023-02-26T15:23:38;101586.13;;;3.83;51.18
68994;BME280;56054;50.968;5.816;2023-02-26T15:26:53;101592.00;;;3.82;51.11
68994;BME280;56054;50.968;5.816;2023-02-26T15:33:22;101600.47;;;3.90;50.05
68994;BME280;56054;50.968;5.816;2023-02-26T15:40:54;101606.41;;;3.89;51.72
68994;BME280;56054;50.968;5.816;2023-02-26T15:44:08;101606.59;;;3.99;52.04
68994;BME280;56054;50.968;5.816;2023-02-26T15:47:42;101614.66;;;4.11;52.40
68994;BME280;56054;50.968;5.816;2023-02-26T15:51:20;101604.06;;;4.16;51.42
68994;BME280;56054;50.968;5.816;2023-02-26T15:55:03;101608.25;;;3.98;52.53
68994;BME280;56054;50.968;5.816;2023-02-26T16:06:33;101618.19;;;3.86;53.54
68994;BME280;56054;50.968;5.816;2023-02-26T16:10:35;101623.22;;;3.94;53.16
68994;BME280;56054;50.968;5.816;2023-02-26T16:13:55;101625.88;;;3.86;52.83
68994;BME280;56054;50.968;5.816;2023-02-26T16:20:43;101626.47;;;3.84;53.39
68994;BME280;56054;50.968;5.816;2023-02-26T16:23:53;101629.81;;;3.83;54.49
68994;BME280;56054;50.968;5.816;2023-02-26T16:27:06;101635.38;;;3.79;53.79
68994;BME280;56054;50.968;5.816;2023-02-26T16:30:23;101636.88;;;3.77;52.59
68994;BME280;56054;50.968;5.816;2023-02-26T16:33:56;101642.31;;;3.80;53.97
68994;BME280;56054;50.968;5.816;2023-02-26T16:37:33;101652.00;;;3.74;54.29
68994;BME280;56054;50.968;5.816;2023-02-26T16:40:45;101651.78;;;3.63;53.27
68994;BME280;56054;50.968;5.816;2023-02-26T16:43:52;101647.78;;;3.58;54.67
68994;BME280;56054;50.968;5.816;2023-02-26T16:47:28;101653.97;;;3.52;54.48
68994;BME280;56054;50.968;5.816;2023-02-26T16:50:40;101653.69;;;3.57;54.71
68994;BME280;56054;50.968;5.816;2023-02-26T16:53:59;101646.97;;;3.51;54.81
68994;BME280;56054;50.968;5.816;2023-02-26T16:57:32;101655.75;;;3.53;55.27
68994;BME280;56054;50.968;5.816;2023-02-26T17:01:08;101658.44;;;3.46;55.77
68994;BME280;56054;50.968;5.816;2023-02-26T17:04:22;101665.50;;;3.39;56.92
68994;BME280;56054;50.968;5.816;2023-02-26T17:07:32;101662.44;;;3.35;56.68
68994;BME280;56054;50.968;5.816;2023-02-26T17:10:49;101658.53;;;3.38;57.58
68994;BME280;56054;50.968;5.816;2023-02-26T17:17:11;101661.13;;;3.22;58.26
68994;BME280;56054;50.968;5.816;2023-02-26T17:20:21;101677.13;;;3.20;58.56
68994;BME280;56054;50.968;5.816;2023-02-26T17:23:33;101667.94;;;3.22;59.34
68994;BME280;56054;50.968;5.816;2023-02-26T17:26:49;101672.81;;;3.12;58.86
68994;BME280;56054;50.968;5.816;2023-02-26T17:30:07;101680.50;;;3.12;58.99
68994;BME280;56054;50.968;5.816;2023-02-26T17:33:29;101680.78;;;3.06;59.52
68994;BME280;56054;50.968;5.816;2023-02-26T17:36:40;101685.16;;;3.07;59.97
68994;BME280;56054;50.968;5.816;2023-02-26T17:39:50;101692.78;;;2.98;60.66
68994;BME280;56054;50.968;5.816;2023-02-26T17:42:57;101687.66;;;2.98;61.16
68994;BME280;56054;50.968;5.816;2023-02-26T17:46:04;101689.72;;;2.94;61.58
68994;BME280;56054;50.968;5.816;2023-02-26T17:49:16;101696.25;;;2.99;62.25
68994;BME280;56054;50.968;5.816;2023-02-26T17:52:23;101687.91;;;3.09;64.54
68994;BME280;56054;50.968;5.816;2023-02-26T17:55:31;101692.69;;;2.90;63.43
68994;BME280;56054;50.968;5.816;2023-02-26T17:58:38;101694.09;;;2.79;62.87
68994;BME280;56054;50.968;5.816;2023-02-26T18:01:45;101707.88;;;2.95;64.12
68994;BME280;56054;50.968;5.816;2023-02-26T18:04:53;101699.16;;;2.86;64.42
68994;BME280;56054;50.968;5.816;2023-02-26T18:08:00;101704.88;;;2.84;63.63
68994;BME280;56054;50.968;5.816;2023-02-26T18:11:11;101706.28;;;2.89;66.74
68994;BME280;56054;50.968;5.816;2023-02-26T18:14:18;101711.59;;;2.90;66.46
68994;BME280;56054;50.968;5.816;2023-02-26T18:17:31;101705.03;;;2.85;65.55
68994;BME280;56054;50.968;5.816;2023-02-26T18:20:39;101708.84;;;2.89;66.69
68994;BME280;56054;50.968;5.816;2023-02-26T18:23:46;101711.56;;;2.74;65.96
68994;BME280;56054;50.968;5.816;2023-02-26T18:26:53;101715.28;;;2.69;65.19
68994;BME280;56054;50.968;5.816;2023-02-26T18:30:00;101701.19;;;2.66;65.49
68994;BME280;56054;50.968;5.816;2023-02-26T18:42:31;101711.56;;;2.59;66.58
68994;BME280;56054;50.968;5.816;2023-02-26T18:46:04;101715.16;;;2.61;66.69
68994;BME280;56054;50.968;5.816;2023-02-26T18:49:18;101713.16;;;2.81;69.66
68994;BME280;56054;50.968;5.816;2023-02-26T18:52:25;101719.91;;;2.65;65.87
68994;BME280;56054;50.968;5.816;2023-02-26T18:59:02;101731.25;;;2.83;71.22
68994;BME280;56054;50.968;5.816;2023-02-26T19:02:11;101722.34;;;2.56;66.22
68994;BME280;56054;50.968;5.816;2023-02-26T19:05:18;101727.03;;;2.67;69.98
68994;BME280;56054;50.968;5.816;2023-02-26T19:08:25;101737.22;;;2.59;68.63
68994;BME280;56054;50.968;5.816;2023-02-26T19:11:32;101730.25;;;2.34;67.43
68994;BME280;56054;50.968;5.816;2023-02-26T19:14:39;101752.88;;;2.23;67.15
68994;BME280;56054;50.968;5.816;2023-02-26T19:17:46;101744.75;;;2.04;66.87
68994;BME280;56054;50.968;5.816;2023-02-26T19:20:53;101751.69;;;2.05;67.76
68994;BME280;56054;50.968;5.816;2023-02-26T19:24:01;101744.13;;;1.90;67.70
68994;BME280;56054;50.968;5.816;2023-02-26T19:27:16;101759.50;;;1.90;67.98
68994;BME280;56054;50.968;5.816;2023-02-26T19:30:24;101756.78;;;1.82;67.72
68994;BME280;56054;50.968;5.816;2023-02-26T19:33:30;101751.09;;;1.84;67.65
68994;BME280;56054;50.968;5.816;2023-02-26T19:36:37;101758.56;;;1.90;67.77
68994;BME280;56054;50.968;5.816;2023-02-26T19:39:44;101757.88;;;1.84;67.58
68994;BME280;56054;50.968;5.816;2023-02-26T19:42:51;101756.03;;;1.83;67.66
68994;BME280;56054;50.968;5.816;2023-02-26T19:45:58;101762.63;;;1.88;67.67
68994;BME280;56054;50.968;5.816;2023-02-26T19:49:05;101774.38;;;1.79;68.55
68994;BME280;56054;50.968;5.816;2023-02-26T19:52:15;101783.88;;;1.80;68.23
68994;BME280;56054;50.968;5.816;2023-02-26T19:55:22;101787.56;;;1.75;68.29
68994;BME280;56054;50.968;5.816;2023-02-26T19:58:30;101786.19;;;1.92;69.14